Time;durP1;ratioP1;P1;durP2;ratioP2;P2;SDS_P1;SDS_P2;PMS_P1;PMS_P2;Temp;Humidity;BMP_temperature;BMP_pressure;BME280_temperature;BME280_humidity;BME280_pressure;Samples;Min_cycle;Max_cycle;Signal;HPM_P1;HPM_P2
2021/08/17 00:00:18;;;;;;;5.60;1.70;;;;;;;;;;5007119;28;20191;-68
2021/08/17 00:02:43;;;;;;;5.97;1.60;;;;;;;;;;5002131;28;20206;-68
2021/08/17 00:05:08;;;;;;;4.43;1.90;;;;;;;;;;4992406;28;20191;-68
2021/08/17 00:07:34;;;;;;;6.67;2.40;;;;;;;;;;4996953;28;20191;-68
2021/08/17 00:10:01;;;;;;;3.53;1.73;;;;;;;;;;4997472;28;20180;-67
2021/08/17 00:12:26;;;;;;;7.53;2.30;;;;;;;;;;5011347;28;20175;-68
2021/08/17 00:14:51;;;;;;;8.43;2.03;;;;;;;;;;5004142;28;20179;-68
2021/08/17 00:17:17;;;;;;;7.70;2.17;;;;;;;;;;5001149;28;20192;-68
2021/08/17 00:19:45;;;;;;;7.07;1.70;;;;;;;;;;4993362;28;20182;-66
2021/08/17 00:22:11;;;;;;;7.50;2.70;;;;;;;;;;4992960;28;20644;-68
2021/08/17 00:24:36;;;;;;;12.17;2.33;;;;;;;;;;5005739;28;20249;-67
2021/08/17 00:27:01;;;;;;;7.83;2.30;;;;;;;;;;4993879;28;20657;-68
2021/08/17 00:29:26;;;;;;;7.43;1.77;;;;;;;;;;4998689;28;20216;-67
2021/08/17 00:31:51;;;;;;;9.93;2.27;;;;;;;;;;5007517;28;20186;-67
2021/08/17 00:34:17;;;;;;;8.37;2.23;;;;;;;;;;5009580;28;20180;-68
2021/08/17 00:36:42;;;;;;;6.90;2.60;;;;;;;;;;5010354;28;20551;-67
2021/08/17 00:39:07;;;;;;;7.17;2.30;;;;;;;;;;5009012;28;20223;-68
2021/08/17 00:41:32;;;;;;;3.80;2.03;;;;;;;;;;5000430;28;20262;-67
2021/08/17 00:43:57;;;;;;;4.90;1.80;;;;;;;;;;5012926;28;20207;-67
2021/08/17 00:46:23;;;;;;;5.23;2.03;;;;;;;;;;5004356;28;20176;-67
2021/08/17 00:48:48;;;;;;;7.83;2.27;;;;;;;;;;4990908;28;20284;-69
2021/08/17 00:51:14;;;;;;;5.83;1.97;;;;;;;;;;5002693;28;20186;-66
2021/08/17 00:53:39;;;;;;;8.30;2.20;;;;;;;;;;5007821;28;20206;-67
2021/08/17 00:56:04;;;;;;;6.83;1.90;;;;;;;;;;5003452;28;20192;-67
2021/08/17 00:58:30;;;;;;;7.97;2.17;;;;;;;;;;5013291;28;21011;-67
2021/08/17 01:00:57;;;;;;;8.03;2.20;;;;;;;;;;5003069;28;20178;-68
2021/08/17 01:03:22;;;;;;;6.60;1.93;;;;;;;;;;4999748;28;20242;-68
2021/08/17 01:05:47;;;;;;;7.00;2.10;;;;;;;;;;5008216;28;20603;-67
2021/08/17 01:08:12;;;;;;;10.63;2.67;;;;;;;;;;5009777;28;20690;-68
2021/08/17 01:10:40;;;;;;;8.80;2.33;;;;;;;;;;5003095;28;20178;-68
2021/08/17 01:13:05;;;;;;;5.63;2.23;;;;;;;;;;5015136;28;20205;-68
2021/08/17 01:15:31;;;;;;;5.73;2.30;;;;;;;;;;5002101;28;20769;-68
2021/08/17 01:17:56;;;;;;;5.60;2.00;;;;;;;;;;5003343;28;20230;-68
2021/08/17 01:20:21;;;;;;;9.60;2.50;;;;;;;;;;5004062;28;20639;-68
2021/08/17 01:22:48;;;;;;;4.60;1.93;;;;;;;;;;5011292;28;20179;-68
2021/08/17 01:25:13;;;;;;;4.47;2.50;;;;;;;;;;5002354;28;20172;-68
2021/08/17 01:27:40;;;;;;;8.00;2.90;;;;;;;;;;5009155;28;20192;-68
2021/08/17 01:30:05;;;;;;;7.83;2.23;;;;;;;;;;5008592;28;20186;-67
2021/08/17 01:32:30;;;;;;;10.20;2.13;;;;;;;;;;5010453;28;20643;-67
2021/08/17 01:34:56;;;;;;;3.70;1.47;;;;;;;;;;5001870;28;20179;-67
2021/08/17 01:37:21;;;;;;;9.90;2.47;;;;;;;;;;5008559;28;20187;-67
2021/08/17 01:40:03;;;;;;;7.73;1.90;;;;;;;;;;5000439;28;20271;-66
2021/08/17 01:42:29;;;;;;;6.27;2.40;;;;;;;;;;5001704;28;20172;-68
2021/08/17 01:44:56;;;;;;;5.77;2.10;;;;;;;;;;5003420;28;20660;-68
2021/08/17 01:47:21;;;;;;;5.57;2.10;;;;;;;;;;5006553;28;20204;-68
2021/08/17 01:49:46;;;;;;;4.60;2.13;;;;;;;;;;4997659;28;20183;-68
2021/08/17 01:52:11;;;;;;;4.60;2.07;;;;;;;;;;4990375;28;20179;-68
2021/08/17 01:54:37;;;;;;;6.63;2.00;;;;;;;;;;5001435;28;20175;-68
2021/08/17 01:57:02;;;;;;;7.57;2.10;;;;;;;;;;5008988;28;20766;-68
2021/08/17 01:59:27;;;;;;;5.20;2.00;;;;;;;;;;4999810;28;20179;-68
2021/08/17 02:01:53;;;;;;;5.33;1.80;;;;;;;;;;4996190;28;20183;-67
2021/08/17 02:04:18;;;;;;;8.40;1.80;;;;;;;;;;5002441;28;20202;-68
2021/08/17 02:06:44;;;;;;;5.80;2.33;;;;;;;;;;5010509;28;20163;-68
2021/08/17 02:09:09;;;;;;;6.97;2.47;;;;;;;;;;5001693;28;20212;-68
2021/08/17 02:11:34;;;;;;;6.43;2.13;;;;;;;;;;5005144;28;20790;-66
2021/08/17 02:13:59;;;;;;;6.17;2.13;;;;;;;;;;5008357;28;20180;-68
2021/08/17 02:16:24;;;;;;;6.00;2.03;;;;;;;;;;5002460;28;20659;-67
2021/08/17 02:18:49;;;;;;;5.37;1.90;;;;;;;;;;4999694;28;20259;-68
2021/08/17 02:21:15;;;;;;;6.63;2.10;;;;;;;;;;4988721;28;20200;-68
2021/08/17 02:23:40;;;;;;;5.10;1.70;;;;;;;;;;5009883;28;20580;-67
2021/08/17 02:26:05;;;;;;;7.50;2.20;;;;;;;;;;5001108;28;20207;-68
2021/08/17 02:28:30;;;;;;;9.07;2.67;;;;;;;;;;5004587;28;20201;-70
2021/08/17 02:30:55;;;;;;;7.90;2.53;;;;;;;;;;5005099;28;20673;-68
2021/08/17 02:33:21;;;;;;;8.20;2.07;;;;;;;;;;5003294;28;20205;-68
2021/08/17 02:35:46;;;;;;;6.93;2.03;;;;;;;;;;5002479;28;20218;-68
2021/08/17 02:38:11;;;;;;;7.37;2.40;;;;;;;;;;5000618;28;20203;-68
2021/08/17 02:40:37;;;;;;;8.00;2.30;;;;;;;;;;4996562;28;20263;-68
2021/08/17 02:43:03;;;;;;;7.83;2.10;;;;;;;;;;5002821;28;20203;-66
2021/08/17 02:45:28;;;;;;;10.60;2.70;;;;;;;;;;5013081;28;20183;-68
2021/08/17 02:47:57;;;;;;;6.50;2.10;;;;;;;;;;5006139;28;20199;-68
2021/08/17 02:50:22;;;;;;;6.63;2.37;;;;;;;;;;5003248;28;20254;-67
2021/08/17 02:52:47;;;;;;;10.73;2.80;;;;;;;;;;5001343;28;20530;-68
2021/08/17 02:55:13;;;;;;;10.63;2.70;;;;;;;;;;5006834;28;20207;-68
2021/08/17 02:57:46;;;;;;;9.83;2.70;;;;;;;;;;5003951;28;20188;-68
2021/08/17 03:00:11;;;;;;;8.60;2.67;;;;;;;;;;5004575;28;20176;-68
2021/08/17 03:02:36;;;;;;;7.27;2.43;;;;;;;;;;5002215;28;20736;-68
2021/08/17 03:05:01;;;;;;;9.13;2.57;;;;;;;;;;5003922;28;20262;-68
2021/08/17 03:07:27;;;;;;;8.23;2.60;;;;;;;;;;5008893;28;20195;-68
2021/08/17 03:09:52;;;;;;;19.90;3.17;;;;;;;;;;5003517;28;20250;-68
2021/08/17 03:12:17;;;;;;;12.10;3.30;;;;;;;;;;5006199;28;20176;-68
2021/08/17 03:14:42;;;;;;;8.90;3.00;;;;;;;;;;5015796;28;20615;-68
2021/08/17 03:17:07;;;;;;;7.40;3.13;;;;;;;;;;5003383;28;20176;-69
2021/08/17 03:19:32;;;;;;;12.53;3.10;;;;;;;;;;5005957;28;20180;-68
2021/08/17 03:21:58;;;;;;;7.13;3.13;;;;;;;;;;5011447;28;20270;-68
2021/08/17 03:24:23;;;;;;;12.27;3.80;;;;;;;;;;5012449;28;20199;-69
2021/08/17 03:26:48;;;;;;;8.93;3.50;;;;;;;;;;5009565;28;20673;-68
2021/08/17 03:29:13;;;;;;;8.53;2.20;;;;;;;;;;5008372;28;20710;-69
2021/08/17 03:31:38;;;;;;;10.60;2.83;;;;;;;;;;4997803;28;20207;-67
2021/08/17 03:34:04;;;;;;;11.60;3.27;;;;;;;;;;5003565;28;20191;-68
2021/08/17 03:36:29;;;;;;;11.50;3.53;;;;;;;;;;5001588;28;20216;-68
2021/08/17 03:38:54;;;;;;;9.23;3.00;;;;;;;;;;5002759;28;20265;-67
2021/08/17 03:41:19;;;;;;;11.33;3.03;;;;;;;;;;5004577;28;20171;-68
2021/08/17 03:43:44;;;;;;;11.90;2.80;;;;;;;;;;5012647;28;20619;-68
2021/08/17 03:46:10;;;;;;;14.47;3.30;;;;;;;;;;5016053;28;20184;-68
2021/08/17 03:48:35;;;;;;;10.23;2.97;;;;;;;;;;4999090;28;20196;-68
2021/08/17 03:51:00;;;;;;;9.97;2.97;;;;;;;;;;5003977;28;20599;-67
2021/08/17 03:53:26;;;;;;;5.83;2.80;;;;;;;;;;5000529;28;20668;-68
2021/08/17 03:55:52;;;;;;;10.23;2.90;;;;;;;;;;4999607;28;20195;-68
2021/08/17 03:58:17;;;;;;;13.93;3.57;;;;;;;;;;5003327;28;20203;-68
2021/08/17 04:00:42;;;;;;;10.17;2.60;;;;;;;;;;5005550;28;20188;-67
2021/08/17 04:03:07;;;;;;;9.00;2.50;;;;;;;;;;4999096;28;20207;-68
2021/08/17 04:05:33;;;;;;;9.73;2.90;;;;;;;;;;5011916;28;20198;-69
2021/08/17 04:07:58;;;;;;;16.53;3.07;;;;;;;;;;5006103;28;20254;-67
2021/08/17 04:10:23;;;;;;;7.47;2.60;;;;;;;;;;5004714;28;20178;-68
2021/08/17 04:12:48;;;;;;;9.40;4.27;;;;;;;;;;5006267;28;20172;-68
2021/08/17 04:15:14;;;;;;;8.97;2.63;;;;;;;;;;5008717;28;20662;-68
2021/08/17 04:17:40;;;;;;;15.37;3.10;;;;;;;;;;4995779;28;20204;-69
2021/08/17 04:20:05;;;;;;;13.67;2.77;;;;;;;;;;5000611;28;20207;-68
2021/08/17 04:22:30;;;;;;;10.47;3.30;;;;;;;;;;4992470;28;20283;-68
2021/08/17 04:24:55;;;;;;;10.63;2.50;;;;;;;;;;5000364;28;20226;-68
2021/08/17 04:27:21;;;;;;;8.03;2.43;;;;;;;;;;5002620;28;20282;-68
2021/08/17 04:29:46;;;;;;;16.10;3.23;;;;;;;;;;5016369;28;20264;-67
2021/08/17 04:32:12;;;;;;;6.57;2.13;;;;;;;;;;5003677;28;20168;-68
2021/08/17 04:34:37;;;;;;;10.60;2.50;;;;;;;;;;5006556;28;20191;-67
2021/08/17 04:37:03;;;;;;;16.20;3.10;;;;;;;;;;5005484;28;20191;-69
2021/08/17 04:39:28;;;;;;;9.93;3.23;;;;;;;;;;5005663;28;20270;-68
2021/08/17 04:41:53;;;;;;;8.37;2.80;;;;;;;;;;4993603;28;20207;-68
2021/08/17 04:44:18;;;;;;;10.07;3.07;;;;;;;;;;5009740;28;20211;-68
2021/08/17 04:46:43;;;;;;;9.13;3.00;;;;;;;;;;5010522;28;20167;-68
2021/08/17 04:49:09;;;;;;;9.77;2.73;;;;;;;;;;4996493;28;20236;-69
2021/08/17 04:51:34;;;;;;;9.03;2.57;;;;;;;;;;5007093;28;20182;-67
2021/08/17 04:53:59;;;;;;;13.50;2.97;;;;;;;;;;5008529;28;20290;-68
2021/08/17 04:56:25;;;;;;;9.43;2.90;;;;;;;;;;4999519;28;20584;-68
2021/08/17 04:58:51;;;;;;;10.97;2.87;;;;;;;;;;4985819;28;20199;-69
2021/08/17 05:01:16;;;;;;;13.90;3.13;;;;;;;;;;4994113;28;20769;-67
2021/08/17 05:03:41;;;;;;;8.33;2.90;;;;;;;;;;4991728;28;20216;-68
2021/08/17 05:06:06;;;;;;;12.77;3.03;;;;;;;;;;4990627;28;20186;-68
2021/08/17 05:08:31;;;;;;;10.77;2.90;;;;;;;;;;4991676;28;20211;-67
2021/08/17 05:10:57;;;;;;;7.70;2.77;;;;;;;;;;4991659;28;20285;-67
2021/08/17 05:13:22;;;;;;;11.60;2.70;;;;;;;;;;4984011;28;20565;-67
2021/08/17 05:15:47;;;;;;;11.13;2.70;;;;;;;;;;4991592;28;20192;-68
2021/08/17 05:18:12;;;;;;;6.37;2.60;;;;;;;;;;4992323;28;20274;-68
2021/08/17 05:20:37;;;;;;;10.10;2.93;;;;;;;;;;5003159;28;20672;-68
2021/08/17 05:23:03;;;;;;;9.17;2.73;;;;;;;;;;5010107;28;20210;-67
2021/08/17 05:25:28;;;;;;;9.57;2.80;;;;;;;;;;5010536;28;20198;-68
2021/08/17 05:27:56;;;;;;;8.23;2.47;;;;;;;;;;5000749;28;20212;-66
2021/08/17 05:30:21;;;;;;;10.13;2.30;;;;;;;;;;5004766;28;20178;-67
2021/08/17 05:32:47;;;;;;;10.10;2.87;;;;;;;;;;5002795;28;20702;-66
2021/08/17 05:35:12;;;;;;;9.93;2.93;;;;;;;;;;5000335;28;20204;-67
2021/08/17 05:37:37;;;;;;;10.83;3.43;;;;;;;;;;5002261;28;20566;-67
2021/08/17 05:40:03;;;;;;;6.13;2.47;;;;;;;;;;5002702;28;20272;-67
2021/08/17 05:42:28;;;;;;;8.37;2.77;;;;;;;;;;5004602;28;20172;-68
2021/08/17 05:44:53;;;;;;;13.90;2.80;;;;;;;;;;4990012;28;20610;-67
2021/08/17 05:47:19;;;;;;;9.30;2.73;;;;;;;;;;4983865;28;20208;-67
2021/08/17 05:49:44;;;;;;;11.50;2.43;;;;;;;;;;4989521;28;20188;-66
2021/08/17 05:52:10;;;;;;;7.07;2.27;;;;;;;;;;4992797;28;20176;-68
2021/08/17 05:54:35;;;;;;;8.07;2.60;;;;;;;;;;4987106;28;20190;-67
2021/08/17 05:57:01;;;;;;;6.27;2.30;;;;;;;;;;4988693;28;20188;-70
2021/08/17 05:59:27;;;;;;;10.87;2.87;;;;;;;;;;5005506;28;20179;-67
2021/08/17 06:01:55;;;;;;;13.33;2.73;;;;;;;;;;4983130;28;20184;-69
2021/08/17 06:04:21;;;;;;;8.57;2.43;;;;;;;;;;4999711;28;20219;-65
2021/08/17 06:06:47;;;;;;;7.57;2.43;;;;;;;;;;4997717;28;20172;-67
2021/08/17 06:09:12;;;;;;;9.20;2.70;;;;;;;;;;4997810;28;20188;-68
2021/08/17 06:11:37;;;;;;;11.63;2.80;;;;;;;;;;4981346;28;21066;-66
2021/08/17 06:14:03;;;;;;;10.10;3.17;;;;;;;;;;4991534;28;20196;-71
2021/08/17 06:16:28;;;;;;;9.33;2.60;;;;;;;;;;4999068;28;20171;-68
2021/08/17 06:18:54;;;;;;;7.87;2.33;;;;;;;;;;4999650;28;20203;-70
2021/08/17 06:21:19;;;;;;;6.67;2.27;;;;;;;;;;4998283;28;20191;-68
2021/08/17 06:23:45;;;;;;;7.47;2.93;;;;;;;;;;4991494;28;20195;-70
2021/08/17 06:26:10;;;;;;;9.03;2.40;;;;;;;;;;4998608;28;20176;-68
2021/08/17 06:28:35;;;;;;;8.50;2.50;;;;;;;;;;5001774;28;20273;-68
2021/08/17 06:31:00;;;;;;;12.00;2.27;;;;;;;;;;5006792;28;20172;-67
2021/08/17 06:33:26;;;;;;;9.07;2.50;;;;;;;;;;5013610;28;20191;-69
2021/08/17 06:35:51;;;;;;;6.77;2.33;;;;;;;;;;5014151;28;20225;-68
2021/08/17 06:38:16;;;;;;;7.80;2.77;;;;;;;;;;5002365;28;20276;-68
2021/08/17 06:40:41;;;;;;;9.87;2.33;;;;;;;;;;5000822;28;20175;-68
2021/08/17 06:43:06;;;;;;;8.43;2.17;;;;;;;;;;5001438;28;20196;-69
2021/08/17 06:45:31;;;;;;;7.90;2.23;;;;;;;;;;5009369;28;20171;-67
2021/08/17 06:47:57;;;;;;;7.70;2.40;;;;;;;;;;5007139;28;20274;-67
2021/08/17 06:50:22;;;;;;;11.60;2.77;;;;;;;;;;4998842;28;20195;-68
2021/08/17 06:52:48;;;;;;;9.87;3.27;;;;;;;;;;5006587;28;20543;-71
2021/08/17 06:55:13;;;;;;;7.30;2.40;;;;;;;;;;5009412;28;20178;-68
2021/08/17 06:57:39;;;;;;;7.70;2.43;;;;;;;;;;5002405;28;20700;-68
2021/08/17 07:00:06;;;;;;;10.90;2.60;;;;;;;;;;5006924;28;20184;-68
2021/08/17 07:02:31;;;;;;;12.67;2.40;;;;;;;;;;5003235;28;20176;-70
2021/08/17 07:04:56;;;;;;;8.53;2.30;;;;;;;;;;5006399;28;20214;-68
2021/08/17 07:07:22;;;;;;;9.20;2.23;;;;;;;;;;5006661;28;20253;-65
2021/08/17 07:09:47;;;;;;;10.70;2.70;;;;;;;;;;4994587;28;20203;-66
2021/08/17 07:12:12;;;;;;;11.80;2.33;;;;;;;;;;4987532;28;20576;-68
2021/08/17 07:14:38;;;;;;;11.37;2.37;;;;;;;;;;4986863;28;20235;-68
2021/08/17 07:17:03;;;;;;;8.50;2.30;;;;;;;;;;4984755;28;20575;-68
2021/08/17 07:19:28;;;;;;;8.25;2.08;;;;;;;;;;4986546;28;20192;-69
2021/08/17 07:21:55;;;;;;;8.30;2.33;;;;;;;;;;4990973;28;20199;-70
2021/08/17 07:24:20;;;;;;;10.18;2.47;;;;;;;;;;4990063;28;20200;-67
2021/08/17 07:26:46;;;;;;;6.63;2.22;;;;;;;;;;5004217;28;20179;-68
2021/08/17 07:29:11;;;;;;;10.50;2.17;;;;;;;;;;4997810;28;20795;-67
2021/08/17 07:31:36;;;;;;;8.93;2.43;;;;;;;;;;5021712;28;20254;-65
2021/08/17 07:34:02;;;;;;;8.97;2.30;;;;;;;;;;5004480;28;20215;-65
2021/08/17 07:36:28;;;;;;;12.52;2.22;;;;;;;;;;5006704;28;20183;-66
2021/08/17 07:38:53;;;;;;;9.48;2.20;;;;;;;;;;5008112;28;20207;-66
2021/08/17 07:41:19;;;;;;;5.50;1.97;;;;;;;;;;5012802;28;20171;-66
2021/08/17 07:43:44;;;;;;;10.77;2.35;;;;;;;;;;5004771;28;20199;-65
2021/08/17 07:46:09;;;;;;;5.78;2.00;;;;;;;;;;4996340;28;20617;-68
2021/08/17 07:48:35;;;;;;;9.60;2.28;;;;;;;;;;5010615;28;20210;-66
2021/08/17 07:51:00;;;;;;;8.60;2.45;;;;;;;;;;5003715;28;20178;-67
2021/08/17 07:53:25;;;;;;;8.13;2.30;;;;;;;;;;5012171;28;20175;-69
2021/08/17 07:55:50;;;;;;;6.88;2.10;;;;;;;;;;5012354;28;20175;-68
2021/08/17 07:58:15;;;;;;;6.40;2.07;;;;;;;;;;5005654;28;20611;-68
2021/08/17 08:00:41;;;;;;;11.05;2.10;;;;;;;;;;4992282;28;20407;-66
2021/08/17 08:03:06;;;;;;;12.48;2.63;;;;;;;;;;5030182;28;20203;-67
2021/08/17 08:05:31;;;;;;;5.85;1.85;;;;;;;;;;5011982;28;20180;-68
2021/08/17 08:07:56;;;;;;;13.10;2.65;;;;;;;;;;5003413;28;20694;-66
2021/08/17 08:10:21;;;;;;;6.72;2.03;;;;;;;;;;4995086;28;20840;-67
2021/08/17 08:12:47;;;;;;;8.97;2.37;;;;;;;;;;5002475;28;20270;-67
2021/08/17 08:15:12;;;;;;;6.22;1.65;;;;;;;;;;5012060;28;20190;-65
2021/08/17 08:17:37;;;;;;;10.30;2.47;;;;;;;;;;5008966;28;20473;-65
2021/08/17 08:20:03;;;;;;;6.90;2.13;;;;;;;;;;5001764;28;20180;-67
2021/08/17 08:22:28;;;;;;;6.10;2.28;;;;;;;;;;5006850;28;20182;-68
2021/08/17 08:24:53;;;;;;;6.03;1.90;;;;;;;;;;5009676;28;20199;-68
2021/08/17 08:27:18;;;;;;;8.32;1.95;;;;;;;;;;5007103;28;20262;-68
2021/08/17 08:29:43;;;;;;;10.80;2.55;;;;;;;;;;5007817;28;20241;-68
2021/08/17 08:32:09;;;;;;;7.05;2.13;;;;;;;;;;5003555;28;20172;-66
2021/08/17 08:34:34;;;;;;;12.40;2.00;;;;;;;;;;5002974;28;20275;-66
2021/08/17 08:36:59;;;;;;;7.47;2.60;;;;;;;;;;5003800;28;20172;-69
2021/08/17 08:39:24;;;;;;;9.00;2.00;;;;;;;;;;4998057;28;20187;-67
2021/08/17 08:41:50;;;;;;;8.32;2.22;;;;;;;;;;5005863;28;20245;-68
2021/08/17 08:44:15;;;;;;;6.88;2.25;;;;;;;;;;4997851;28;20230;-68
2021/08/17 08:46:40;;;;;;;5.07;1.98;;;;;;;;;;5006683;28;20167;-68
2021/08/17 08:49:05;;;;;;;7.55;2.10;;;;;;;;;;5007871;28;20202;-67
2021/08/17 08:51:31;;;;;;;4.45;1.70;;;;;;;;;;4996005;28;20160;-67
2021/08/17 08:53:56;;;;;;;8.05;1.90;;;;;;;;;;5000118;28;20180;-67
2021/08/17 08:56:26;;;;;;;6.68;2.10;;;;;;;;;;4999829;28;20175;-65
2021/08/17 08:58:52;;;;;;;8.05;2.15;;;;;;;;;;4998329;28;20236;-67
2021/08/17 09:01:21;;;;;;;8.15;2.28;;;;;;;;;;4991730;28;20314;-67
2021/08/17 09:03:47;;;;;;;8.65;2.33;;;;;;;;;;5006868;28;20701;-66
2021/08/17 09:06:22;;;;;;;6.55;1.75;;;;;;;;;;5004385;28;20599;-66
2021/08/17 09:08:50;;;;;;;10.05;2.15;;;;;;;;;;4999164;28;20295;-67
2021/08/17 09:11:20;;;;;;;4.95;2.65;;;;;;;;;;4986639;28;20180;-66
2021/08/17 09:13:46;;;;;;;5.78;2.10;;;;;;;;;;5000725;28;20190;-66
2021/08/17 09:16:24;;;;;;;6.07;1.85;;;;;;;;;;5002972;28;20176;-66
2021/08/17 09:18:52;;;;;;;7.72;2.40;;;;;;;;;;4999668;28;20554;-64
2021/08/17 09:21:17;;;;;;;7.28;2.15;;;;;;;;;;5009118;28;20669;-66
2021/08/17 09:23:42;;;;;;;6.90;1.90;;;;;;;;;;5002609;28;20337;-69
2021/08/17 09:26:21;;;;;;;6.70;2.33;;;;;;;;;;4985565;28;20878;-69
2021/08/17 09:28:57;;;;;;;9.35;2.70;;;;;;;;;;4990874;28;20687;-69
2021/08/17 09:31:31;;;;;;;9.75;2.17;;;;;;;;;;4988647;28;20172;-70
2021/08/17 09:33:57;;;;;;;11.50;2.83;;;;;;;;;;4985554;28;20207;-71
2021/08/17 09:36:22;;;;;;;14.65;2.22;;;;;;;;;;4986668;28;20219;-72
2021/08/17 09:38:47;;;;;;;6.65;2.28;;;;;;;;;;4992872;28;20824;-70
2021/08/17 09:41:23;;;;;;;6.78;2.10;;;;;;;;;;4984111;28;20192;-69
2021/08/17 09:43:57;;;;;;;8.05;2.20;;;;;;;;;;4985943;28;20214;-69
2021/08/17 09:46:27;;;;;;;3.95;1.90;;;;;;;;;;4986488;28;21886;-69
2021/08/17 09:48:53;;;;;;;9.05;2.50;;;;;;;;;;4999591;28;20211;-71
2021/08/17 09:51:34;;;;;;;9.65;2.63;;;;;;;;;;4995870;28;20229;-71
2021/08/17 09:54:12;;;;;;;8.05;2.47;;;;;;;;;;4992884;28;20514;-71
2021/08/17 09:56:37;;;;;;;8.40;2.78;;;;;;;;;;5011882;28;20246;-70
2021/08/17 09:59:04;;;;;;;5.32;2.20;;;;;;;;;;4991300;28;20203;-71
2021/08/17 10:01:29;;;;;;;6.57;2.22;;;;;;;;;;5003699;28;20682;-69
2021/08/17 10:03:54;;;;;;;8.82;3.00;;;;;;;;;;5011756;28;20210;-68
2021/08/17 10:06:19;;;;;;;7.70;2.67;;;;;;;;;;5001518;28;20187;-68
2021/08/17 10:08:45;;;;;;;7.05;2.40;;;;;;;;;;4996818;28;20207;-70
2021/08/17 10:11:10;;;;;;;10.02;2.90;;;;;;;;;;4989708;28;20714;-68
2021/08/17 10:13:37;;;;;;;7.90;2.42;;;;;;;;;;5003307;28;20267;-69
2021/08/17 10:16:03;;;;;;;8.75;2.75;;;;;;;;;;4991055;28;20250;-66
2021/08/17 10:18:30;;;;;;;9.30;2.70;;;;;;;;;;5010442;28;20203;-68
2021/08/17 10:20:57;;;;;;;6.47;3.10;;;;;;;;;;4994526;28;20720;-68
2021/08/17 10:23:23;;;;;;;5.35;2.67;;;;;;;;;;4993720;28;20207;-66
2021/08/17 10:25:50;;;;;;;8.18;2.53;;;;;;;;;;4989783;28;20300;-67
2021/08/17 10:28:24;;;;;;;10.82;3.20;;;;;;;;;;4993457;28;20195;-67
2021/08/17 10:30:49;;;;;;;9.80;3.13;;;;;;;;;;4993574;28;20239;-68
2021/08/17 10:33:35;;;;;;;9.80;3.08;;;;;;;;;;5000761;28;20183;-70
2021/08/17 10:36:00;;;;;;;7.78;2.80;;;;;;;;;;4989506;28;20187;-69
2021/08/17 10:38:25;;;;;;;8.43;3.22;;;;;;;;;;4994405;28;20198;-69
2021/08/17 10:40:50;;;;;;;7.53;3.47;;;;;;;;;;4995236;28;20756;-67
2021/08/17 10:43:16;;;;;;;12.15;3.50;;;;;;;;;;4990996;28;20470;-68
2021/08/17 10:45:53;;;;;;;7.28;3.20;;;;;;;;;;4991010;28;20563;-71
2021/08/17 10:48:37;;;;;;;10.05;3.40;;;;;;;;;;4983859;28;20313;-68
2021/08/17 10:51:02;;;;;;;9.57;3.55;;;;;;;;;;4989622;28;20176;-68
2021/08/17 10:53:40;;;;;;;10.20;3.30;;;;;;;;;;4996375;28;20184;-67
2021/08/17 10:56:12;;;;;;;10.85;3.55;;;;;;;;;;5001267;28;20185;-68
2021/08/17 10:58:42;;;;;;;9.07;3.88;;;;;;;;;;4995256;28;20286;-69
2021/08/17 11:01:08;;;;;;;8.35;3.67;;;;;;;;;;4995752;28;20183;-68
2021/08/17 11:03:40;;;;;;;8.82;3.53;;;;;;;;;;5001708;28;20207;-68
2021/08/17 11:06:06;;;;;;;14.13;3.75;;;;;;;;;;5003011;28;20179;-68
2021/08/17 11:08:31;;;;;;;11.93;4.38;;;;;;;;;;5002004;28;20286;-69
2021/08/17 11:11:00;;;;;;;10.77;3.85;;;;;;;;;;5003422;28;20167;-68
2021/08/17 11:13:26;;;;;;;6.82;3.65;;;;;;;;;;4994227;28;20452;-68
2021/08/17 11:16:06;;;;;;;8.57;3.65;;;;;;;;;;4995470;28;20188;-68
2021/08/17 11:18:47;;;;;;;5.00;3.30;;;;;;;;;;4998992;28;20861;-69
2021/08/17 11:21:12;;;;;;;8.70;3.83;;;;;;;;;;4994031;28;20204;-69
2021/08/17 11:23:37;;;;;;;6.72;3.80;;;;;;;;;;4998305;28;20710;-69
2021/08/17 11:26:08;;;;;;;5.03;3.78;;;;;;;;;;4992512;28;20188;-69
2021/08/17 11:28:34;;;;;;;6.05;3.60;;;;;;;;;;5000431;28;20627;-69
2021/08/17 11:30:59;;;;;;;7.85;4.40;;;;;;;;;;4989999;28;20211;-69
2021/08/17 11:33:24;;;;;;;6.55;4.00;;;;;;;;;;4993067;28;20215;-69
2021/08/17 11:35:50;;;;;;;7.43;4.80;;;;;;;;;;4992270;28;20655;-70
2021/08/17 11:38:20;;;;;;;8.40;4.55;;;;;;;;;;4994644;28;20472;-72
2021/08/17 11:40:46;;;;;;;10.40;5.20;;;;;;;;;;4987948;28;20192;-75
2021/08/17 11:43:14;;;;;;;12.82;5.32;;;;;;;;;;5000782;28;20238;-71
2021/08/17 11:45:39;;;;;;;9.25;5.00;;;;;;;;;;5001402;28;20188;-71
2021/08/17 11:48:05;;;;;;;7.60;4.57;;;;;;;;;;5011849;28;20214;-72
2021/08/17 11:50:30;;;;;;;8.43;5.40;;;;;;;;;;5009938;28;20187;-72
2021/08/17 11:52:57;;;;;;;9.70;5.45;;;;;;;;;;5005388;28;20184;-71
2021/08/17 11:55:26;;;;;;;8.40;5.63;;;;;;;;;;5006368;28;20666;-70
2021/08/17 11:57:52;;;;;;;8.38;5.32;;;;;;;;;;5005794;28;20242;-70
2021/08/17 12:00:19;;;;;;;9.50;5.30;;;;;;;;;;5005758;28;20172;-73
2021/08/17 12:02:46;;;;;;;12.30;5.68;;;;;;;;;;5010551;28;20214;-70
2021/08/17 12:05:12;;;;;;;9.57;5.65;;;;;;;;;;5006994;28;20210;-77
2021/08/17 12:07:38;;;;;;;7.93;5.45;;;;;;;;;;4998963;28;20199;-76
2021/08/17 12:10:05;;;;;;;7.43;5.70;;;;;;;;;;5003128;28;20179;-73
2021/08/17 12:12:49;;;;;;;11.10;5.80;;;;;;;;;;5012265;28;20183;-73
2021/08/17 12:15:14;;;;;;;8.65;5.50;;;;;;;;;;5019299;28;20274;-73
2021/08/17 12:17:52;;;;;;;10.10;6.30;;;;;;;;;;4991153;28;20744;-74
2021/08/17 12:20:18;;;;;;;8.95;5.90;;;;;;;;;;5007885;28;20274;-76
2021/08/17 12:22:44;;;;;;;8.60;5.70;;;;;;;;;;5007912;28;20266;-72
2021/08/17 12:25:18;;;;;;;9.73;5.85;;;;;;;;;;5000534;28;20287;-71
2021/08/17 12:27:51;;;;;;;11.25;6.40;;;;;;;;;;5004317;28;20610;-72
2021/08/17 12:30:26;;;;;;;9.10;5.78;;;;;;;;;;5009574;28;20298;-69
2021/08/17 12:32:53;;;;;;;8.98;6.45;;;;;;;;;;5009105;28;20258;-72
2021/08/17 12:35:24;;;;;;;9.32;6.70;;;;;;;;;;5003299;28;20180;-72
2021/08/17 12:37:49;;;;;;;10.20;7.05;;;;;;;;;;5006723;28;20682;-72
2021/08/17 12:40:15;;;;;;;12.52;6.93;;;;;;;;;;5002137;28;20183;-71
2021/08/17 12:42:41;;;;;;;9.20;6.25;;;;;;;;;;5008935;28;20176;-70
2021/08/17 12:45:07;;;;;;;10.85;7.85;;;;;;;;;;5008566;28;20208;-70
2021/08/17 12:47:33;;;;;;;8.77;7.13;;;;;;;;;;4994336;28;20192;-70
2021/08/17 12:50:05;;;;;;;12.93;6.90;;;;;;;;;;5009813;28;20262;-71
2021/08/17 12:52:31;;;;;;;11.65;7.55;;;;;;;;;;5011268;28;20233;-69
2021/08/17 12:55:02;;;;;;;8.95;7.20;;;;;;;;;;5009524;28;20179;-69
2021/08/17 12:57:28;;;;;;;13.95;8.30;;;;;;;;;;5008127;28;20203;-70
2021/08/17 12:59:56;;;;;;;13.82;7.43;;;;;;;;;;5001576;28;20543;-69
2021/08/17 13:02:21;;;;;;;9.95;7.13;;;;;;;;;;5010340;28;20175;-70
2021/08/17 13:04:46;;;;;;;14.23;7.72;;;;;;;;;;5018181;28;20198;-72
2021/08/17 13:07:11;;;;;;;11.48;7.80;;;;;;;;;;5001845;28;20549;-71
2021/08/17 13:09:37;;;;;;;10.43;8.00;;;;;;;;;;5006061;28;20432;-72
2021/08/17 13:12:02;;;;;;;12.93;7.97;;;;;;;;;;4992938;28;20540;-71
2021/08/17 13:14:27;;;;;;;10.18;7.20;;;;;;;;;;5008446;28;20663;-72
2021/08/17 13:16:52;;;;;;;12.55;8.32;;;;;;;;;;4997924;28;20230;-71
2021/08/17 13:19:18;;;;;;;13.82;7.85;;;;;;;;;;4997913;28;20206;-70
2021/08/17 13:21:43;;;;;;;10.73;7.63;;;;;;;;;;5022829;28;20269;-71
2021/08/17 13:24:08;;;;;;;12.85;7.55;;;;;;;;;;5010103;28;20207;-72
2021/08/17 13:26:33;;;;;;;13.15;8.32;;;;;;;;;;4999756;28;20252;-72
2021/08/17 13:28:59;;;;;;;10.65;7.95;;;;;;;;;;5004114;28;20223;-70
2021/08/17 13:31:24;;;;;;;12.50;8.20;;;;;;;;;;5004335;28;20218;-71
2021/08/17 13:33:49;;;;;;;11.55;8.50;;;;;;;;;;4998720;28;20176;-70
2021/08/17 13:36:14;;;;;;;12.25;8.73;;;;;;;;;;5003471;28;20171;-73
2021/08/17 13:38:39;;;;;;;12.65;8.50;;;;;;;;;;5009124;28;20278;-74
2021/08/17 13:41:05;;;;;;;11.60;8.05;;;;;;;;;;5005913;28;20606;-72
2021/08/17 13:43:30;;;;;;;14.30;8.98;;;;;;;;;;5006562;28;20269;-72
2021/08/17 13:45:58;;;;;;;11.60;8.95;;;;;;;;;;5004264;28;20183;-72
2021/08/17 13:48:23;;;;;;;15.18;9.77;;;;;;;;;;5010021;28;20284;-72
2021/08/17 13:50:49;;;;;;;13.93;9.85;;;;;;;;;;5010468;28;20592;-72
2021/08/17 13:53:14;;;;;;;15.45;9.40;;;;;;;;;;4989263;28;20191;-73
2021/08/17 13:55:39;;;;;;;13.65;9.73;;;;;;;;;;5003769;28;20176;-72
2021/08/17 13:58:04;;;;;;;16.25;9.13;;;;;;;;;;5004555;28;20199;-71
2021/08/17 14:00:29;;;;;;;11.52;8.00;;;;;;;;;;4998956;28;20172;-71
2021/08/17 14:02:55;;;;;;;11.43;8.82;;;;;;;;;;5008026;28;20536;-72
2021/08/17 14:05:20;;;;;;;13.35;9.40;;;;;;;;;;5009233;28;20241;-73
2021/08/17 14:07:45;;;;;;;13.33;8.70;;;;;;;;;;5019308;28;20694;-72
2021/08/17 14:10:11;;;;;;;12.18;8.85;;;;;;;;;;5005439;28;20438;-71
2021/08/17 14:12:36;;;;;;;15.52;9.55;;;;;;;;;;5002617;28;21182;-73
2021/08/17 14:15:01;;;;;;;16.75;9.43;;;;;;;;;;5009097;28;20179;-70
2021/08/17 14:17:26;;;;;;;12.70;9.20;;;;;;;;;;5003384;28;20320;-70
2021/08/17 14:19:52;;;;;;;14.95;9.02;;;;;;;;;;5007570;28;20203;-71
2021/08/17 14:22:17;;;;;;;13.27;9.20;;;;;;;;;;5003223;28;20314;-71
2021/08/17 14:24:42;;;;;;;13.55;10.15;;;;;;;;;;5006969;28;20206;-71
2021/08/17 14:27:07;;;;;;;12.00;8.27;;;;;;;;;;5007481;28;20805;-70
2021/08/17 14:29:33;;;;;;;13.52;9.30;;;;;;;;;;5005447;28;20233;-74
2021/08/17 14:31:58;;;;;;;13.55;9.50;;;;;;;;;;5000431;28;20218;-75